Innis, Louisiana
Current Conditions -  °F | °C
As of 8:15 AM on Thursday 29 Jan 2015 (Local Time) from KHZR Reporting Station
Haze Haze  
Wind Chill: 51°   Ceiling: 2000
Heat Index: 51°   Visibility: 5mi
Dew Point: 50°   Wind: 3mph
Humidity: 96%   Direction: 120°ESE
Pressure: 30.23"   Gusts: NA
Location:  30.88°N, 91.68°W
Report Text: KHZR 291415Z AUTO 12003KT 5SM BR OVC020 11/10 A3023 RMK AO2 T01080102
Loading
Personal Weather Stations






























Interactive Weather Map New forecast layout! Learn more

10-Day Weather Forecast

Advertisements
Track Severe Weather on mobile